Yokosuka Fwf, Japan

2:20 AM JST on August 31, 2016 (GMT +0900)
Obaradai | | Change Station

Elev 154 ft 35.25 °N, 139.72 °E | Updated 15 seconds ago

Partly Cloudy
Partly Cloudy
76.1 °F
Feels Like 78 °F
N
4.0
Wind Variable Wind from SSW
Gusts 4.9 mph

Today
High -- | Low -- °F
--% Chance of Precip.
Yesterday
High -- | Low -- °F
Precip. -- in
Pressure 29.36 in
Visibility 6.2 miles
Clouds Few 5000 ft
Heat Index 78 °F
Dew Point 60 °F
Humidity 58%
Rainfall 0.00 in
Snow Depth Not available.
5:12 AM 6:09 PM
Waning Crescent, 3% visible
METAR RJTT 301700Z 22021G33KT 9999 FEW050 26/16 Q0994 NOSIG RMK 1SC050 A2937
Pressure 29.36 in
Visibility 6.2 miles
Clouds Few 5000 ft
Heat Index 78 °F
Dew Point 60 °F
Humidity 58%
Rainfall 0.00 in
Snow Depth Not available.
5:12 AM 6:09 PM
Waning Crescent, 3% visible
METAR RJTT 301700Z 22021G33KT 9999 FEW050 26/16 Q0994 NOSIG RMK 1SC050 A2937

10-Day Weather Forecast

No radar image for this location.
×

Almanac

Astronomy

Aug. 31, 2016 Rise Set
Actual Time
Civil Twilight
Nautical Twilight
Astronomical Twilight
Moon
Length of Visible Light
Length of Day
Tomorrow will be .
, % of the Moon is Illuminated

Today's Extremes

Country Highs Country Lows

Community

WunderPhotos

Upload Photos

1,935,848 photos uploaded!

WunderBlog® & News

Nearby

Air Quality

  Air Quality AQ Index Pollutant
Not available.

Snow Depth

Station Depth Elevation

Earthquake Activity

City Distance Mag. Time & Date
Minimum magnitude displayed is 2.5.

Coastal Water Temperatures

Place Temperature

Stations

Nearby Weather Stations

Station Location Temp. Windchill Dew Point Humidity Wind Precip. Elev Updated Type